Bda Duhamel, Puerto Rico
Current Conditions -  °F | °C
As of 7:50 AM on Sunday 21 Dec 2014 (Local Time) from TJBQ Reporting Station
Clear Clear  
Wind Chill: 73°   Ceiling: Unl
Heat Index: 73°   Visibility: 10mi
Dew Point: 68°   Wind: 9mph
Humidity: 83%   Direction: 100°E
Pressure: 30.06"   Gusts: NA
Location:  18.4739°N, 66.7295°W
Report Text: TJBQ 211150Z 10008KT 10SM SKC 23/20 A3006 RMK RWY 8 ATIS W
Loading
Personal Weather Stations






























Interactive Weather Map New forecast layout! Learn more

10-Day Weather Forecast

Advertisements
Track Severe Weather on mobile